首页
METAR-TAF:

METAR-TAF

机场 :

伊瓜苏, 巴拉那州, 巴西

纬度: 25-31S, 经度: 054-35W, 海拔: 180米

当前天气观测

该预报发布于1小时和1分钟前的08:00 UTC
风速6节,风向
温度 9°C
湿度 100%
气压 1020 hPa
能见度10公里或以上
1500米以下无云,无积雨云

METAR: SBFI 160800Z 18006KT CAVOK 09/09 Q1020

时间: 06:01 (09:01 UTC)

预报

该预报发布于6小时和1分钟前的03:00 UTC
预报有效从16日的 06点(UTC)到 17日的 06点(UTC)
风速5节,风向
能见度10公里或以上
1500米以下无云,无积雨云
几率 30%
从 16日的 08点(UTC)到 16日的 11点(UTC)
能見度: 0500
层高于200英尺
成为
从 16日的 14点(UTC)到 16日的 16点(UTC)
风速7节,风向南转南东
成为
从 17日的 02点(UTC)到 17日的 04点(UTC)
能見度: 1000

TAF: SBFI 160300Z 1606/1706 18005KT CAVOK TN09/1608Z TX20/1618Z PROB30 1608/1611 0500 FG VV002 BECMG 1614/1616 16007KT BECMG 1702/1704 1000 4KT RMK PCX

超过4000个机场的气象观测和天气预报(METAR&TAF报告)。

可查询的气象台以黄色和红色小点在地图上表示。

将鼠标移到小点上方,可查看气象台名称。

然后点击查看天气观测和预报。

如需切换地图:点击带黑十字的绿色按钮放大地图;点击带横线的绿色按钮缩小地图;或者点击绿色箭头查看邻近地区的地图。


METAR-TAF: